sensor_id;sensor_type;location;lat;lon;timestamp;P1;durP1;ratioP1;P2;durP2;ratioP2
527;SDS011;250;47.712;7.508;2022-11-15T00:02:21;3.70;;;3.10;;
527;SDS011;250;47.712;7.508;2022-11-15T00:04:48;10.03;;;5.10;;
527;SDS011;250;47.712;7.508;2022-11-15T00:07:16;5.10;;;3.73;;
527;SDS011;250;47.712;7.508;2022-11-15T00:09:43;3.67;;;3.10;;
527;SDS011;250;47.712;7.508;2022-11-15T00:12:10;9.80;;;6.43;;
527;SDS011;250;47.712;7.508;2022-11-15T00:14:37;6.63;;;4.40;;
527;SDS011;250;47.712;7.508;2022-11-15T00:17:04;7.00;;;3.80;;
527;SDS011;250;47.712;7.508;2022-11-15T00:19:31;4.90;;;2.40;;
527;SDS011;250;47.712;7.508;2022-11-15T00:21:58;3.17;;;2.60;;
527;SDS011;250;47.712;7.508;2022-11-15T00:24:27;4.13;;;3.00;;
527;SDS011;250;47.712;7.508;2022-11-15T00:26:54;4.30;;;3.20;;
527;SDS011;250;47.712;7.508;2022-11-15T00:29:21;2.57;;;1.87;;
527;SDS011;250;47.712;7.508;2022-11-15T00:31:48;4.30;;;2.67;;
527;SDS011;250;47.712;7.508;2022-11-15T00:34:15;3.87;;;2.70;;
527;SDS011;250;47.712;7.508;2022-11-15T00:36:42;3.13;;;1.83;;
527;SDS011;250;47.712;7.508;2022-11-15T00:39:09;3.60;;;2.30;;
527;SDS011;250;47.712;7.508;2022-11-15T00:41:37;5.20;;;2.03;;
527;SDS011;250;47.712;7.508;2022-11-15T00:44:04;4.83;;;2.20;;
527;SDS011;250;47.712;7.508;2022-11-15T00:46:31;5.67;;;4.13;;
527;SDS011;250;47.712;7.508;2022-11-15T00:48:58;6.53;;;4.33;;
527;SDS011;250;47.712;7.508;2022-11-15T00:51:25;4.23;;;2.63;;
527;SDS011;250;47.712;7.508;2022-11-15T00:53:52;4.00;;;2.17;;
527;SDS011;250;47.712;7.508;2022-11-15T00:56:19;3.93;;;2.70;;
527;SDS011;250;47.712;7.508;2022-11-15T00:58:48;4.07;;;2.43;;
527;SDS011;250;47.712;7.508;2022-11-15T01:01:15;6.10;;;3.90;;
527;SDS011;250;47.712;7.508;2022-11-15T01:03:42;5.00;;;3.90;;
527;SDS011;250;47.712;7.508;2022-11-15T01:06:09;5.80;;;3.27;;
527;SDS011;250;47.712;7.508;2022-11-15T01:08:37;4.30;;;3.23;;
527;SDS011;250;47.712;7.508;2022-11-15T01:11:06;6.30;;;3.13;;
527;SDS011;250;47.712;7.508;2022-11-15T01:13:34;3.30;;;2.40;;
527;SDS011;250;47.712;7.508;2022-11-15T01:16:07;3.33;;;2.10;;
527;SDS011;250;47.712;7.508;2022-11-15T01:18:35;5.30;;;2.27;;
527;SDS011;250;47.712;7.508;2022-11-15T01:21:06;2.43;;;2.20;;
527;SDS011;250;47.712;7.508;2022-11-15T01:23:34;2.90;;;2.30;;
527;SDS011;250;47.712;7.508;2022-11-15T01:26:01;5.47;;;2.77;;
527;SDS011;250;47.712;7.508;2022-11-15T01:28:30;4.80;;;2.33;;
527;SDS011;250;47.712;7.508;2022-11-15T01:30:58;3.03;;;1.80;;
527;SDS011;250;47.712;7.508;2022-11-15T01:33:27;2.30;;;1.70;;
527;SDS011;250;47.712;7.508;2022-11-15T01:35:55;3.90;;;2.20;;
527;SDS011;250;47.712;7.508;2022-11-15T01:38:22;3.10;;;2.00;;
527;SDS011;250;47.712;7.508;2022-11-15T01:40:49;3.53;;;2.33;;
527;SDS011;250;47.712;7.508;2022-11-15T01:43:24;3.37;;;2.80;;
527;SDS011;250;47.712;7.508;2022-11-15T01:45:52;3.60;;;2.37;;
527;SDS011;250;47.712;7.508;2022-11-15T01:48:28;3.87;;;2.83;;
527;SDS011;250;47.712;7.508;2022-11-15T01:50:59;5.00;;;2.23;;
527;SDS011;250;47.712;7.508;2022-11-15T01:53:28;3.50;;;2.40;;
527;SDS011;250;47.712;7.508;2022-11-15T01:55:58;3.70;;;2.60;;
527;SDS011;250;47.712;7.508;2022-11-15T01:58:27;3.50;;;2.67;;
527;SDS011;250;47.712;7.508;2022-11-15T02:00:54;3.70;;;2.50;;
527;SDS011;250;47.712;7.508;2022-11-15T02:03:22;3.97;;;2.80;;
527;SDS011;250;47.712;7.508;2022-11-15T02:05:57;2.93;;;2.57;;
527;SDS011;250;47.712;7.508;2022-11-15T02:08:25;4.20;;;3.00;;
527;SDS011;250;47.712;7.508;2022-11-15T02:10:52;5.23;;;2.73;;
527;SDS011;250;47.712;7.508;2022-11-15T02:13:19;3.03;;;2.73;;
527;SDS011;250;47.712;7.508;2022-11-15T02:15:48;5.23;;;3.50;;
527;SDS011;250;47.712;7.508;2022-11-15T02:18:27;5.00;;;2.63;;
527;SDS011;250;47.712;7.508;2022-11-15T02:21:02;3.20;;;2.47;;
527;SDS011;250;47.712;7.508;2022-11-15T02:29:48;3.93;;;2.27;;
527;SDS011;250;47.712;7.508;2022-11-15T02:32:39;2.73;;;1.97;;
527;SDS011;250;47.712;7.508;2022-11-15T02:35:12;2.43;;;1.70;;
527;SDS011;250;47.712;7.508;2022-11-15T02:37:48;4.37;;;2.77;;
527;SDS011;250;47.712;7.508;2022-11-15T02:40:24;2.77;;;1.83;;
527;SDS011;250;47.712;7.508;2022-11-15T02:43:00;4.00;;;2.77;;
527;SDS011;250;47.712;7.508;2022-11-15T02:45:51;3.10;;;1.87;;
527;SDS011;250;47.712;7.508;2022-11-15T02:48:23;3.30;;;1.43;;
527;SDS011;250;47.712;7.508;2022-11-15T02:50:52;3.60;;;2.10;;
527;SDS011;250;47.712;7.508;2022-11-15T02:53:23;4.30;;;2.10;;
527;SDS011;250;47.712;7.508;2022-11-15T02:55:51;3.00;;;2.27;;
527;SDS011;250;47.712;7.508;2022-11-15T02:58:24;4.10;;;1.80;;
527;SDS011;250;47.712;7.508;2022-11-15T03:01:10;4.00;;;1.70;;
527;SDS011;250;47.712;7.508;2022-11-15T03:03:49;4.23;;;2.13;;
527;SDS011;250;47.712;7.508;2022-11-15T03:06:27;3.07;;;2.20;;
527;SDS011;250;47.712;7.508;2022-11-15T03:09:03;9.20;;;2.00;;
527;SDS011;250;47.712;7.508;2022-11-15T03:11:36;3.07;;;2.00;;
527;SDS011;250;47.712;7.508;2022-11-15T03:14:09;3.30;;;2.30;;
527;SDS011;250;47.712;7.508;2022-11-15T03:16:45;4.80;;;2.40;;
527;SDS011;250;47.712;7.508;2022-11-15T03:19:20;3.60;;;2.80;;
527;SDS011;250;47.712;7.508;2022-11-15T03:21:52;5.57;;;2.50;;
527;SDS011;250;47.712;7.508;2022-11-15T03:24:21;4.90;;;2.47;;
527;SDS011;250;47.712;7.508;2022-11-15T03:26:50;3.43;;;2.23;;
527;SDS011;250;47.712;7.508;2022-11-15T03:29:19;2.90;;;1.70;;
527;SDS011;250;47.712;7.508;2022-11-15T03:31:51;4.07;;;2.43;;
527;SDS011;250;47.712;7.508;2022-11-15T03:34:27;4.37;;;3.20;;
527;SDS011;250;47.712;7.508;2022-11-15T03:36:57;2.70;;;1.93;;
527;SDS011;250;47.712;7.508;2022-11-15T03:39:24;4.97;;;1.90;;
527;SDS011;250;47.712;7.508;2022-11-15T03:41:55;2.90;;;1.87;;
527;SDS011;250;47.712;7.508;2022-11-15T03:44:32;2.63;;;1.83;;
527;SDS011;250;47.712;7.508;2022-11-15T03:47:07;2.20;;;1.73;;
527;SDS011;250;47.712;7.508;2022-11-15T03:49:40;2.40;;;1.87;;
527;SDS011;250;47.712;7.508;2022-11-15T03:52:10;4.77;;;2.40;;
527;SDS011;250;47.712;7.508;2022-11-15T03:54:47;3.53;;;1.93;;
527;SDS011;250;47.712;7.508;2022-11-15T03:57:16;2.40;;;1.80;;
527;SDS011;250;47.712;7.508;2022-11-15T03:59:43;3.43;;;2.10;;
527;SDS011;250;47.712;7.508;2022-11-15T04:02:11;3.00;;;2.40;;
527;SDS011;250;47.712;7.508;2022-11-15T04:04:40;3.10;;;2.37;;
527;SDS011;250;47.712;7.508;2022-11-15T04:07:07;3.40;;;2.20;;
527;SDS011;250;47.712;7.508;2022-11-15T04:09:34;3.70;;;2.50;;
527;SDS011;250;47.712;7.508;2022-11-15T04:12:22;3.27;;;2.50;;
527;SDS011;250;47.712;7.508;2022-11-15T04:14:55;6.10;;;2.47;;
527;SDS011;250;47.712;7.508;2022-11-15T04:17:33;4.03;;;2.77;;
527;SDS011;250;47.712;7.508;2022-11-15T04:20:02;3.73;;;3.13;;
527;SDS011;250;47.712;7.508;2022-11-15T04:22:47;4.27;;;3.03;;
527;SDS011;250;47.712;7.508;2022-11-15T04:25:32;5.20;;;3.60;;
527;SDS011;250;47.712;7.508;2022-11-15T04:27:59;4.40;;;2.80;;
527;SDS011;250;47.712;7.508;2022-11-15T04:30:26;4.17;;;3.30;;
527;SDS011;250;47.712;7.508;2022-11-15T04:32:53;3.33;;;2.73;;
527;SDS011;250;47.712;7.508;2022-11-15T04:35:21;4.23;;;3.30;;
527;SDS011;250;47.712;7.508;2022-11-15T04:37:48;5.50;;;3.57;;
527;SDS011;250;47.712;7.508;2022-11-15T04:40:14;4.73;;;3.13;;
527;SDS011;250;47.712;7.508;2022-11-15T04:42:42;5.70;;;3.43;;
527;SDS011;250;47.712;7.508;2022-11-15T04:45:09;3.97;;;3.00;;
527;SDS011;250;47.712;7.508;2022-11-15T04:47:36;4.50;;;3.80;;
527;SDS011;250;47.712;7.508;2022-11-15T04:50:04;4.50;;;3.80;;
527;SDS011;250;47.712;7.508;2022-11-15T04:52:33;6.40;;;3.67;;
527;SDS011;250;47.712;7.508;2022-11-15T04:55:00;4.20;;;3.30;;
527;SDS011;250;47.712;7.508;2022-11-15T04:57:27;4.37;;;3.93;;
527;SDS011;250;47.712;7.508;2022-11-15T04:59:54;9.70;;;4.40;;
527;SDS011;250;47.712;7.508;2022-11-15T05:02:21;4.77;;;3.57;;
527;SDS011;250;47.712;7.508;2022-11-15T05:04:48;5.13;;;3.60;;
527;SDS011;250;47.712;7.508;2022-11-15T05:07:14;13.67;;;4.20;;
527;SDS011;250;47.712;7.508;2022-11-15T05:09:42;5.13;;;3.90;;
527;SDS011;250;47.712;7.508;2022-11-15T05:12:09;4.47;;;4.07;;
527;SDS011;250;47.712;7.508;2022-11-15T05:14:36;4.87;;;4.13;;
527;SDS011;250;47.712;7.508;2022-11-15T05:17:03;5.60;;;3.80;;
527;SDS011;250;47.712;7.508;2022-11-15T05:19:30;4.47;;;3.87;;
527;SDS011;250;47.712;7.508;2022-11-15T05:21:57;5.07;;;4.10;;
527;SDS011;250;47.712;7.508;2022-11-15T05:24:24;5.40;;;4.10;;
527;SDS011;250;47.712;7.508;2022-11-15T05:26:52;5.80;;;4.40;;
527;SDS011;250;47.712;7.508;2022-11-15T05:29:19;6.77;;;4.10;;
527;SDS011;250;47.712;7.508;2022-11-15T05:31:47;4.77;;;4.37;;
527;SDS011;250;47.712;7.508;2022-11-15T05:34:14;5.00;;;3.40;;
527;SDS011;250;47.712;7.508;2022-11-15T05:36:42;6.80;;;3.83;;
527;SDS011;250;47.712;7.508;2022-11-15T05:39:10;4.30;;;3.43;;
527;SDS011;250;47.712;7.508;2022-11-15T05:41:39;8.83;;;4.50;;
527;SDS011;250;47.712;7.508;2022-11-15T05:44:12;6.47;;;4.90;;
527;SDS011;250;47.712;7.508;2022-11-15T05:46:43;5.33;;;4.30;;
527;SDS011;250;47.712;7.508;2022-11-15T05:49:11;5.53;;;3.80;;
527;SDS011;250;47.712;7.508;2022-11-15T05:51:41;5.97;;;3.83;;
527;SDS011;250;47.712;7.508;2022-11-15T05:54:09;4.90;;;4.00;;
527;SDS011;250;47.712;7.508;2022-11-15T05:56:37;7.97;;;4.90;;
527;SDS011;250;47.712;7.508;2022-11-15T05:59:04;6.23;;;4.60;;
527;SDS011;250;47.712;7.508;2022-11-15T06:01:33;6.70;;;5.33;;
527;SDS011;250;47.712;7.508;2022-11-15T06:04:00;6.50;;;4.70;;
527;SDS011;250;47.712;7.508;2022-11-15T06:06:27;8.30;;;6.03;;
527;SDS011;250;47.712;7.508;2022-11-15T06:08:55;7.43;;;5.80;;
527;SDS011;250;47.712;7.508;2022-11-15T06:11:22;8.60;;;7.17;;
527;SDS011;250;47.712;7.508;2022-11-15T06:13:49;11.63;;;8.37;;
527;SDS011;250;47.712;7.508;2022-11-15T06:16:16;7.77;;;6.30;;
527;SDS011;250;47.712;7.508;2022-11-15T06:18:44;6.97;;;6.27;;
527;SDS011;250;47.712;7.508;2022-11-15T06:21:11;7.63;;;6.80;;
527;SDS011;250;47.712;7.508;2022-11-15T06:23:38;7.10;;;6.07;;
527;SDS011;250;47.712;7.508;2022-11-15T06:26:05;9.43;;;6.33;;
527;SDS011;250;47.712;7.508;2022-11-15T06:28:32;5.90;;;5.30;;
527;SDS011;250;47.712;7.508;2022-11-15T06:31:02;7.00;;;5.60;;
527;SDS011;250;47.712;7.508;2022-11-15T06:33:29;8.57;;;6.97;;
527;SDS011;250;47.712;7.508;2022-11-15T06:36:00;8.23;;;6.50;;
527;SDS011;250;47.712;7.508;2022-11-15T06:38:29;8.20;;;6.60;;
527;SDS011;250;47.712;7.508;2022-11-15T06:41:00;7.30;;;5.93;;
527;SDS011;250;47.712;7.508;2022-11-15T06:43:28;5.90;;;5.30;;
527;SDS011;250;47.712;7.508;2022-11-15T06:45:55;9.53;;;6.23;;
527;SDS011;250;47.712;7.508;2022-11-15T06:48:23;9.53;;;7.13;;
527;SDS011;250;47.712;7.508;2022-11-15T06:50:50;10.60;;;7.97;;
527;SDS011;250;47.712;7.508;2022-11-15T06:53:19;14.30;;;9.00;;
527;SDS011;250;47.712;7.508;2022-11-15T06:55:46;11.23;;;7.30;;
527;SDS011;250;47.712;7.508;2022-11-15T06:58:13;9.63;;;6.33;;
527;SDS011;250;47.712;7.508;2022-11-15T07:00:40;7.93;;;7.07;;
527;SDS011;250;47.712;7.508;2022-11-15T07:03:08;6.23;;;5.63;;
527;SDS011;250;47.712;7.508;2022-11-15T07:05:35;10.10;;;8.40;;
527;SDS011;250;47.712;7.508;2022-11-15T07:08:02;7.40;;;6.70;;
527;SDS011;250;47.712;7.508;2022-11-15T07:10:31;10.10;;;6.57;;
527;SDS011;250;47.712;7.508;2022-11-15T07:12:58;7.77;;;6.47;;
527;SDS011;250;47.712;7.508;2022-11-15T07:15:25;8.17;;;7.37;;
527;SDS011;250;47.712;7.508;2022-11-15T07:17:52;9.43;;;6.97;;
527;SDS011;250;47.712;7.508;2022-11-15T07:20:19;7.63;;;6.30;;
527;SDS011;250;47.712;7.508;2022-11-15T07:22:46;5.70;;;4.20;;
527;SDS011;250;47.712;7.508;2022-11-15T07:25:13;5.40;;;4.90;;
527;SDS011;250;47.712;7.508;2022-11-15T07:27:42;5.37;;;3.97;;
527;SDS011;250;47.712;7.508;2022-11-15T07:30:09;4.30;;;3.60;;
527;SDS011;250;47.712;7.508;2022-11-15T07:32:37;5.87;;;4.40;;
527;SDS011;250;47.712;7.508;2022-11-15T07:35:04;4.67;;;3.60;;
527;SDS011;250;47.712;7.508;2022-11-15T07:37:31;6.77;;;4.03;;
527;SDS011;250;47.712;7.508;2022-11-15T07:39:58;5.50;;;4.57;;
527;SDS011;250;47.712;7.508;2022-11-15T07:42:25;6.10;;;4.60;;
527;SDS011;250;47.712;7.508;2022-11-15T07:45:11;13.93;;;8.73;;
527;SDS011;250;47.712;7.508;2022-11-15T07:47:38;9.57;;;7.27;;
527;SDS011;250;47.712;7.508;2022-11-15T07:50:05;6.60;;;6.00;;
527;SDS011;250;47.712;7.508;2022-11-15T07:52:32;7.23;;;6.00;;
527;SDS011;250;47.712;7.508;2022-11-15T07:54:59;8.80;;;5.33;;
527;SDS011;250;47.712;7.508;2022-11-15T07:57:26;10.67;;;6.17;;
527;SDS011;250;47.712;7.508;2022-11-15T07:59:53;7.87;;;5.50;;
527;SDS011;250;47.712;7.508;2022-11-15T08:02:22;7.03;;;5.90;;
527;SDS011;250;47.712;7.508;2022-11-15T08:04:49;6.63;;;4.97;;
527;SDS011;250;47.712;7.508;2022-11-15T08:07:16;5.70;;;5.00;;
527;SDS011;250;47.712;7.508;2022-11-15T08:09:43;7.87;;;6.40;;
527;SDS011;250;47.712;7.508;2022-11-15T08:12:10;6.80;;;5.73;;
527;SDS011;250;47.712;7.508;2022-11-15T08:14:37;7.27;;;5.63;;
527;SDS011;250;47.712;7.508;2022-11-15T08:17:04;7.00;;;5.53;;
527;SDS011;250;47.712;7.508;2022-11-15T08:19:32;11.37;;;7.00;;
527;SDS011;250;47.712;7.508;2022-11-15T08:21:59;7.13;;;6.20;;
527;SDS011;250;47.712;7.508;2022-11-15T08:24:26;16.20;;;10.57;;
527;SDS011;250;47.712;7.508;2022-11-15T08:26:53;7.43;;;6.03;;
527;SDS011;250;47.712;7.508;2022-11-15T08:29:20;8.33;;;6.30;;
527;SDS011;250;47.712;7.508;2022-11-15T08:31:47;7.00;;;5.47;;
527;SDS011;250;47.712;7.508;2022-11-15T08:34:14;6.93;;;6.23;;
527;SDS011;250;47.712;7.508;2022-11-15T08:36:43;6.90;;;5.87;;
527;SDS011;250;47.712;7.508;2022-11-15T08:39:10;8.00;;;6.63;;
527;SDS011;250;47.712;7.508;2022-11-15T08:41:37;7.10;;;6.10;;
527;SDS011;250;47.712;7.508;2022-11-15T08:44:05;7.03;;;6.20;;
527;SDS011;250;47.712;7.508;2022-11-15T08:46:32;6.93;;;6.23;;
527;SDS011;250;47.712;7.508;2022-11-15T08:48:59;7.37;;;6.60;;
527;SDS011;250;47.712;7.508;2022-11-15T08:51:26;7.20;;;6.50;;
527;SDS011;250;47.712;7.508;2022-11-15T08:53:54;7.20;;;6.23;;
527;SDS011;250;47.712;7.508;2022-11-15T08:56:21;6.13;;;5.00;;
527;SDS011;250;47.712;7.508;2022-11-15T08:58:48;9.10;;;6.20;;
527;SDS011;250;47.712;7.508;2022-11-15T09:01:16;10.40;;;5.03;;
527;SDS011;250;47.712;7.508;2022-11-15T09:03:44;9.17;;;6.00;;
527;SDS011;250;47.712;7.508;2022-11-15T09:06:11;7.00;;;5.30;;
527;SDS011;250;47.712;7.508;2022-11-15T09:08:40;5.27;;;4.33;;
527;SDS011;250;47.712;7.508;2022-11-15T09:11:08;4.90;;;4.40;;
527;SDS011;250;47.712;7.508;2022-11-15T09:13:36;4.47;;;4.07;;
527;SDS011;250;47.712;7.508;2022-11-15T09:16:03;4.40;;;3.83;;
527;SDS011;250;47.712;7.508;2022-11-15T09:18:31;6.33;;;4.53;;
527;SDS011;250;47.712;7.508;2022-11-15T09:20:59;4.33;;;3.77;;
527;SDS011;250;47.712;7.508;2022-11-15T09:23:27;3.40;;;3.10;;
527;SDS011;250;47.712;7.508;2022-11-15T09:25:58;5.17;;;3.67;;
527;SDS011;250;47.712;7.508;2022-11-15T09:28:27;3.10;;;2.80;;
527;SDS011;250;47.712;7.508;2022-11-15T09:30:55;3.20;;;2.50;;
527;SDS011;250;47.712;7.508;2022-11-15T09:33:24;3.50;;;2.57;;
527;SDS011;250;47.712;7.508;2022-11-15T09:35:51;3.50;;;3.17;;
527;SDS011;250;47.712;7.508;2022-11-15T09:38:19;3.83;;;3.03;;
527;SDS011;250;47.712;7.508;2022-11-15T09:40:46;3.40;;;2.90;;
527;SDS011;250;47.712;7.508;2022-11-15T09:43:37;4.10;;;2.77;;
527;SDS011;250;47.712;7.508;2022-11-15T09:46:13;5.73;;;5.13;;
527;SDS011;250;47.712;7.508;2022-11-15T09:48:51;4.60;;;3.87;;
527;SDS011;250;47.712;7.508;2022-11-15T09:51:24;3.70;;;3.30;;
527;SDS011;250;47.712;7.508;2022-11-15T09:54:00;4.40;;;3.00;;
527;SDS011;250;47.712;7.508;2022-11-15T09:56:32;5.43;;;3.10;;
527;SDS011;250;47.712;7.508;2022-11-15T09:59:13;2.83;;;2.47;;
527;SDS011;250;47.712;7.508;2022-11-15T10:01:59;3.47;;;2.53;;
527;SDS011;250;47.712;7.508;2022-11-15T10:04:36;4.33;;;3.00;;
527;SDS011;250;47.712;7.508;2022-11-15T10:07:06;2.90;;;2.40;;
527;SDS011;250;47.712;7.508;2022-11-15T10:09:42;3.50;;;2.67;;
527;SDS011;250;47.712;7.508;2022-11-15T10:12:14;3.83;;;2.57;;
527;SDS011;250;47.712;7.508;2022-11-15T10:14:43;2.97;;;2.50;;
527;SDS011;250;47.712;7.508;2022-11-15T10:17:19;2.93;;;2.60;;
527;SDS011;250;47.712;7.508;2022-11-15T10:19:59;4.83;;;3.27;;
527;SDS011;250;47.712;7.508;2022-11-15T10:22:35;4.90;;;3.00;;
527;SDS011;250;47.712;7.508;2022-11-15T10:25:14;5.20;;;4.43;;
527;SDS011;250;47.712;7.508;2022-11-15T10:27:46;4.80;;;4.20;;
527;SDS011;250;47.712;7.508;2022-11-15T10:30:20;3.00;;;2.27;;
527;SDS011;250;47.712;7.508;2022-11-15T10:32:47;5.30;;;2.67;;
527;SDS011;250;47.712;7.508;2022-11-15T10:35:16;3.87;;;2.60;;
527;SDS011;250;47.712;7.508;2022-11-15T10:37:45;3.40;;;2.67;;
527;SDS011;250;47.712;7.508;2022-11-15T10:40:15;3.60;;;2.67;;
527;SDS011;250;47.712;7.508;2022-11-15T10:42:44;3.50;;;3.00;;
527;SDS011;250;47.712;7.508;2022-11-15T10:50:48;6.93;;;5.57;;
527;SDS011;250;47.712;7.508;2022-11-15T10:53:20;6.40;;;4.37;;
527;SDS011;250;47.712;7.508;2022-11-15T10:55:54;5.87;;;3.80;;
527;SDS011;250;47.712;7.508;2022-11-15T10:58:29;6.00;;;4.20;;
527;SDS011;250;47.712;7.508;2022-11-15T11:01:13;8.53;;;4.63;;
527;SDS011;250;47.712;7.508;2022-11-15T11:03:43;6.13;;;4.57;;
527;SDS011;250;47.712;7.508;2022-11-15T11:06:12;5.23;;;3.47;;
527;SDS011;250;47.712;7.508;2022-11-15T11:08:40;3.33;;;2.40;;
527;SDS011;250;47.712;7.508;2022-11-15T11:11:20;8.27;;;4.67;;
527;SDS011;250;47.712;7.508;2022-11-15T11:13:47;3.93;;;3.20;;
527;SDS011;250;47.712;7.508;2022-11-15T11:16:21;3.33;;;2.60;;
527;SDS011;250;47.712;7.508;2022-11-15T11:19:10;4.90;;;2.57;;
527;SDS011;250;47.712;7.508;2022-11-15T11:22:04;2.90;;;1.97;;
527;SDS011;250;47.712;7.508;2022-11-15T11:24:39;5.57;;;4.10;;
527;SDS011;250;47.712;7.508;2022-11-15T11:27:13;7.67;;;6.63;;
527;SDS011;250;47.712;7.508;2022-11-15T11:29:54;4.60;;;3.90;;
527;SDS011;250;47.712;7.508;2022-11-15T11:32:34;6.10;;;3.20;;
527;SDS011;250;47.712;7.508;2022-11-15T11:35:17;4.97;;;2.90;;
527;SDS011;250;47.712;7.508;2022-11-15T11:37:50;6.80;;;3.47;;
527;SDS011;250;47.712;7.508;2022-11-15T11:40:27;3.90;;;3.50;;
527;SDS011;250;47.712;7.508;2022-11-15T11:42:58;4.17;;;3.13;;
527;SDS011;250;47.712;7.508;2022-11-15T11:48:26;4.17;;;3.60;;
527;SDS011;250;47.712;7.508;2022-11-15T11:51:08;3.93;;;2.70;;
527;SDS011;250;47.712;7.508;2022-11-15T11:53:45;5.10;;;4.20;;
527;SDS011;250;47.712;7.508;2022-11-15T11:56:21;4.63;;;3.77;;
527;SDS011;250;47.712;7.508;2022-11-15T11:58:52;3.97;;;3.20;;
527;SDS011;250;47.712;7.508;2022-11-15T12:01:23;4.63;;;2.60;;
527;SDS011;250;47.712;7.508;2022-11-15T12:03:54;5.63;;;4.03;;
527;SDS011;250;47.712;7.508;2022-11-15T12:06:27;3.43;;;2.50;;
527;SDS011;250;47.712;7.508;2022-11-15T12:09:00;2.97;;;2.17;;
527;SDS011;250;47.712;7.508;2022-11-15T12:11:34;3.50;;;1.97;;
527;SDS011;250;47.712;7.508;2022-11-15T12:14:05;2.80;;;2.50;;
527;SDS011;250;47.712;7.508;2022-11-15T12:16:42;5.13;;;4.10;;
527;SDS011;250;47.712;7.508;2022-11-15T12:19:11;4.20;;;3.43;;
527;SDS011;250;47.712;7.508;2022-11-15T12:21:39;4.00;;;2.50;;
527;SDS011;250;47.712;7.508;2022-11-15T12:24:12;4.00;;;2.00;;
527;SDS011;250;47.712;7.508;2022-11-15T12:26:45;3.03;;;2.00;;
527;SDS011;250;47.712;7.508;2022-11-15T12:29:16;3.67;;;2.57;;
527;SDS011;250;47.712;7.508;2022-11-15T12:31:48;2.57;;;2.10;;
527;SDS011;250;47.712;7.508;2022-11-15T12:34:39;11.80;;;7.40;;
527;SDS011;250;47.712;7.508;2022-11-15T12:40:32;6.80;;;4.37;;
527;SDS011;250;47.712;7.508;2022-11-15T12:46:11;5.63;;;3.67;;
527;SDS011;250;47.712;7.508;2022-11-15T12:48:46;11.87;;;6.00;;
527;SDS011;250;47.712;7.508;2022-11-15T12:52:03;15.60;;;10.30;;
527;SDS011;250;47.712;7.508;2022-11-15T12:57:29;3.53;;;2.60;;
527;SDS011;250;47.712;7.508;2022-11-15T13:00:35;2.80;;;2.10;;
527;SDS011;250;47.712;7.508;2022-11-15T13:03:18;4.23;;;2.80;;
527;SDS011;250;47.712;7.508;2022-11-15T13:05:58;5.40;;;2.80;;
527;SDS011;250;47.712;7.508;2022-11-15T13:08:36;3.07;;;2.00;;
527;SDS011;250;47.712;7.508;2022-11-15T13:17:25;2.60;;;2.20;;
527;SDS011;250;47.712;7.508;2022-11-15T13:20:00;3.53;;;2.50;;
527;SDS011;250;47.712;7.508;2022-11-15T13:22:43;5.07;;;2.43;;
527;SDS011;250;47.712;7.508;2022-11-15T13:28:18;4.27;;;3.20;;
527;SDS011;250;47.712;7.508;2022-11-15T13:30:49;11.90;;;4.70;;
527;SDS011;250;47.712;7.508;2022-11-15T13:33:18;3.67;;;2.63;;
527;SDS011;250;47.712;7.508;2022-11-15T13:35:49;5.10;;;3.17;;
527;SDS011;250;47.712;7.508;2022-11-15T13:38:18;2.83;;;2.53;;
527;SDS011;250;47.712;7.508;2022-11-15T13:40:53;4.23;;;2.73;;
527;SDS011;250;47.712;7.508;2022-11-15T13:43:25;3.80;;;2.70;;
527;SDS011;250;47.712;7.508;2022-11-15T13:46:04;4.87;;;3.40;;
527;SDS011;250;47.712;7.508;2022-11-15T13:48:37;12.10;;;4.43;;
527;SDS011;250;47.712;7.508;2022-11-15T13:51:05;8.10;;;3.20;;
527;SDS011;250;47.712;7.508;2022-11-15T13:53:36;4.50;;;2.60;;
527;SDS011;250;47.712;7.508;2022-11-15T13:56:08;5.60;;;4.10;;
527;SDS011;250;47.712;7.508;2022-11-15T13:58:37;6.90;;;3.50;;
527;SDS011;250;47.712;7.508;2022-11-15T14:01:05;5.73;;;3.27;;
527;SDS011;250;47.712;7.508;2022-11-15T14:03:34;4.60;;;2.97;;
527;SDS011;250;47.712;7.508;2022-11-15T14:06:11;5.53;;;3.30;;
527;SDS011;250;47.712;7.508;2022-11-15T14:08:40;4.00;;;2.57;;
527;SDS011;250;47.712;7.508;2022-11-15T14:11:12;5.90;;;3.23;;
527;SDS011;250;47.712;7.508;2022-11-15T14:13:41;3.70;;;2.73;;
527;SDS011;250;47.712;7.508;2022-11-15T14:16:32;2.77;;;2.33;;
527;SDS011;250;47.712;7.508;2022-11-15T14:19:00;2.80;;;2.10;;
527;SDS011;250;47.712;7.508;2022-11-15T14:21:27;6.13;;;3.70;;
527;SDS011;250;47.712;7.508;2022-11-15T14:26:44;5.80;;;3.50;;
527;SDS011;250;47.712;7.508;2022-11-15T14:29:24;4.27;;;3.80;;
527;SDS011;250;47.712;7.508;2022-11-15T14:31:51;4.30;;;3.30;;
527;SDS011;250;47.712;7.508;2022-11-15T14:34:19;3.67;;;2.87;;
527;SDS011;250;47.712;7.508;2022-11-15T14:36:47;5.83;;;3.73;;
527;SDS011;250;47.712;7.508;2022-11-15T14:39:14;4.43;;;3.60;;
527;SDS011;250;47.712;7.508;2022-11-15T14:41:41;8.67;;;6.67;;
527;SDS011;250;47.712;7.508;2022-11-15T14:44:10;4.77;;;3.20;;
527;SDS011;250;47.712;7.508;2022-11-15T14:46:43;2.57;;;1.97;;
527;SDS011;250;47.712;7.508;2022-11-15T14:49:10;2.77;;;2.40;;
527;SDS011;250;47.712;7.508;2022-11-15T14:51:38;2.67;;;1.80;;
527;SDS011;250;47.712;7.508;2022-11-15T14:54:08;4.57;;;3.00;;
527;SDS011;250;47.712;7.508;2022-11-15T14:56:36;4.00;;;3.17;;
527;SDS011;250;47.712;7.508;2022-11-15T14:59:04;4.70;;;3.53;;
527;SDS011;250;47.712;7.508;2022-11-15T15:01:31;3.50;;;2.40;;
527;SDS011;250;47.712;7.508;2022-11-15T15:03:58;5.40;;;3.17;;
527;SDS011;250;47.712;7.508;2022-11-15T15:06:28;3.87;;;2.77;;
527;SDS011;250;47.712;7.508;2022-11-15T15:08:55;4.10;;;2.83;;
527;SDS011;250;47.712;7.508;2022-11-15T15:11:23;4.50;;;2.97;;
527;SDS011;250;47.712;7.508;2022-11-15T15:13:52;4.23;;;3.17;;
527;SDS011;250;47.712;7.508;2022-11-15T15:16:23;3.47;;;3.13;;
527;SDS011;250;47.712;7.508;2022-11-15T15:18:50;5.70;;;3.07;;
527;SDS011;250;47.712;7.508;2022-11-15T15:21:20;3.67;;;3.30;;
527;SDS011;250;47.712;7.508;2022-11-15T15:23:49;6.33;;;4.80;;
527;SDS011;250;47.712;7.508;2022-11-15T15:26:16;5.17;;;3.27;;
527;SDS011;250;47.712;7.508;2022-11-15T15:28:43;5.70;;;4.50;;
527;SDS011;250;47.712;7.508;2022-11-15T15:31:10;5.33;;;3.80;;
527;SDS011;250;47.712;7.508;2022-11-15T15:33:39;5.23;;;3.30;;
527;SDS011;250;47.712;7.508;2022-11-15T15:36:08;3.87;;;3.07;;
527;SDS011;250;47.712;7.508;2022-11-15T15:38:37;4.43;;;4.03;;
527;SDS011;250;47.712;7.508;2022-11-15T15:41:08;4.23;;;3.10;;
527;SDS011;250;47.712;7.508;2022-11-15T15:43:36;3.53;;;3.20;;
527;SDS011;250;47.712;7.508;2022-11-15T15:46:04;4.20;;;3.10;;
527;SDS011;250;47.712;7.508;2022-11-15T15:48:33;6.93;;;2.87;;
527;SDS011;250;47.712;7.508;2022-11-15T15:51:03;3.80;;;3.07;;
527;SDS011;250;47.712;7.508;2022-11-15T15:53:31;3.67;;;2.50;;
527;SDS011;250;47.712;7.508;2022-11-15T15:55:58;5.73;;;2.63;;
527;SDS011;250;47.712;7.508;2022-11-15T15:58:25;3.80;;;3.00;;
527;SDS011;250;47.712;7.508;2022-11-15T16:00:52;6.33;;;3.00;;
527;SDS011;250;47.712;7.508;2022-11-15T16:03:19;3.03;;;2.57;;
527;SDS011;250;47.712;7.508;2022-11-15T16:05:46;4.93;;;2.93;;
527;SDS011;250;47.712;7.508;2022-11-15T16:08:17;3.50;;;2.60;;
527;SDS011;250;47.712;7.508;2022-11-15T16:10:45;5.73;;;4.57;;
527;SDS011;250;47.712;7.508;2022-11-15T16:13:13;5.60;;;4.17;;
527;SDS011;250;47.712;7.508;2022-11-15T16:15:40;2.83;;;2.43;;
527;SDS011;250;47.712;7.508;2022-11-15T16:18:08;3.93;;;3.30;;
527;SDS011;250;47.712;7.508;2022-11-15T16:20:42;6.10;;;5.50;;
527;SDS011;250;47.712;7.508;2022-11-15T16:23:11;9.60;;;8.60;;
527;SDS011;250;47.712;7.508;2022-11-15T16:25:41;3.80;;;3.13;;
527;SDS011;250;47.712;7.508;2022-11-15T16:28:15;3.80;;;2.80;;
527;SDS011;250;47.712;7.508;2022-11-15T16:30:44;5.10;;;3.93;;
527;SDS011;250;47.712;7.508;2022-11-15T16:33:11;5.03;;;4.00;;
527;SDS011;250;47.712;7.508;2022-11-15T16:35:38;8.13;;;5.10;;
527;SDS011;250;47.712;7.508;2022-11-15T16:38:05;16.83;;;9.80;;
527;SDS011;250;47.712;7.508;2022-11-15T16:40:33;4.50;;;3.40;;
527;SDS011;250;47.712;7.508;2022-11-15T16:43:02;6.50;;;4.80;;